sensor_id;sensor_type;location;lat;lon;timestamp;pressure;altitude;pressure_sealevel;temperature;humidity
14343;BME280;7255;53.596;9.960;2023-02-22T00:00:11;101399.94;;;9.27;nan
14343;BME280;7255;53.596;9.960;2023-02-22T00:02:45;101390.78;;;9.08;nan
14343;BME280;7255;53.596;9.960;2023-02-22T00:05:12;101385.00;;;9.04;nan
14343;BME280;7255;53.596;9.960;2023-02-22T00:07:41;101380.03;;;9.01;nan
14343;BME280;7255;53.596;9.960;2023-02-22T00:10:10;101379.69;;;9.17;nan
14343;BME280;7255;53.596;9.960;2023-02-22T00:12:38;101378.91;;;9.30;nan
14343;BME280;7255;53.596;9.960;2023-02-22T00:15:05;101383.94;;;9.40;nan
14343;BME280;7255;53.596;9.960;2023-02-22T00:17:32;101389.31;;;9.47;nan
14343;BME280;7255;53.596;9.960;2023-02-22T00:19:58;101384.34;;;9.50;nan
14343;BME280;7255;53.596;9.960;2023-02-22T00:22:25;101391.34;;;9.44;nan
14343;BME280;7255;53.596;9.960;2023-02-22T00:24:51;101371.56;;;9.52;nan
14343;BME280;7255;53.596;9.960;2023-02-22T00:27:19;101383.50;;;9.43;nan
14343;BME280;7255;53.596;9.960;2023-02-22T00:29:45;101379.84;;;9.51;nan
14343;BME280;7255;53.596;9.960;2023-02-22T00:32:12;101374.47;;;9.57;nan
14343;BME280;7255;53.596;9.960;2023-02-22T00:34:39;101374.47;;;9.57;nan
14343;BME280;7255;53.596;9.960;2023-02-22T00:37:06;101374.47;;;9.57;nan
14343;BME280;7255;53.596;9.960;2023-02-22T00:39:32;101376.16;;;9.58;nan
14343;BME280;7255;53.596;9.960;2023-02-22T00:41:58;101372.03;;;9.62;nan
14343;BME280;7255;53.596;9.960;2023-02-22T00:44:26;101373.25;;;9.60;nan
14343;BME280;7255;53.596;9.960;2023-02-22T00:46:52;101371.19;;;9.62;nan
14343;BME280;7255;53.596;9.960;2023-02-22T00:49:18;101381.50;;;9.65;nan
14343;BME280;7255;53.596;9.960;2023-02-22T00:51:45;101367.91;;;9.67;nan
14343;BME280;7255;53.596;9.960;2023-02-22T00:54:11;101381.94;;;9.69;nan
14343;BME280;7255;53.596;9.960;2023-02-22T00:56:38;101377.81;;;9.66;nan
14343;BME280;7255;53.596;9.960;2023-02-22T00:59:04;101375.75;;;9.68;nan
14343;BME280;7255;53.596;9.960;2023-02-22T01:01:32;101376.56;;;9.69;nan
14343;BME280;7255;53.596;9.960;2023-02-22T01:03:58;101374.12;;;9.67;nan
14343;BME280;7255;53.596;9.960;2023-02-22T01:06:25;101378.22;;;9.56;nan
14343;BME280;7255;53.596;9.960;2023-02-22T01:08:51;101396.75;;;9.58;nan
14343;BME280;7255;53.596;9.960;2023-02-22T01:11:17;101367.91;;;9.60;nan
14343;BME280;7255;53.596;9.960;2023-02-22T01:13:44;101376.16;;;9.58;nan
14343;BME280;7255;53.596;9.960;2023-02-22T01:16:10;101354.25;;;9.61;nan
14343;BME280;7255;53.596;9.960;2023-02-22T01:18:38;101369.16;;;9.64;nan
14343;BME280;7255;53.596;9.960;2023-02-22T01:21:05;101356.34;;;9.66;nan
14343;BME280;7255;53.596;9.960;2023-02-22T01:23:32;101351.38;;;9.56;nan
14343;BME280;7255;53.596;9.960;2023-02-22T01:25:59;101356.72;;;9.50;nan
14343;BME280;7255;53.596;9.960;2023-02-22T01:28:25;101351.31;;;9.43;nan
14343;BME280;7255;53.596;9.960;2023-02-22T01:30:53;101358.75;;;9.41;nan
14343;BME280;7255;53.596;9.960;2023-02-22T01:33:20;101365.34;;;9.45;nan
14343;BME280;7255;53.596;9.960;2023-02-22T01:35:48;101358.78;;;9.48;nan
14343;BME280;7255;53.596;9.960;2023-02-22T01:38:15;101351.75;;;9.47;nan
14343;BME280;7255;53.596;9.960;2023-02-22T01:40:46;101347.22;;;9.47;nan
14343;BME280;7255;53.596;9.960;2023-02-22T01:43:16;101345.56;;;9.46;nan
14343;BME280;7255;53.596;9.960;2023-02-22T01:45:50;101350.09;;;9.46;nan
14343;BME280;7255;53.596;9.960;2023-02-22T01:48:22;101341.00;;;9.47;nan
14343;BME280;7255;53.596;9.960;2023-02-22T01:50:53;101352.59;;;9.54;nan
14343;BME280;7255;53.596;9.960;2023-02-22T01:53:23;101341.00;;;9.47;nan
14343;BME280;7255;53.596;9.960;2023-02-22T01:55:52;101344.31;;;9.42;nan
14343;BME280;7255;53.596;9.960;2023-02-22T01:58:21;101324.91;;;9.40;nan
14343;BME280;7255;53.596;9.960;2023-02-22T02:00:49;101328.19;;;9.35;nan
14343;BME280;7255;53.596;9.960;2023-02-22T02:03:19;101328.63;;;9.39;nan
14343;BME280;7255;53.596;9.960;2023-02-22T02:05:49;101331.94;;;9.41;nan
14343;BME280;7255;53.596;9.960;2023-02-22T02:08:24;101333.59;;;9.42;nan
14343;BME280;7255;53.596;9.960;2023-02-22T02:10:55;101329.47;;;9.46;nan
14343;BME280;7255;53.596;9.960;2023-02-22T02:13:23;101338.97;;;9.42;nan
14343;BME280;7255;53.596;9.960;2023-02-22T02:15:52;101331.53;;;9.44;nan
14343;BME280;7255;53.596;9.960;2023-02-22T02:18:19;101321.19;;;9.41;nan
14343;BME280;7255;53.596;9.960;2023-02-22T02:20:57;101327.81;;;9.38;nan
14343;BME280;7255;53.596;9.960;2023-02-22T02:23:43;101321.19;;;9.41;nan
14343;BME280;7255;53.596;9.960;2023-02-22T02:26:40;101327.38;;;9.35;nan
14343;BME280;7255;53.596;9.960;2023-02-22T02:32:35;101326.13;;;9.31;nan
14343;BME280;7255;53.596;9.960;2023-02-22T02:35:10;101333.56;;;9.29;nan
14343;BME280;7255;53.596;9.960;2023-02-22T02:37:44;101296.00;;;9.29;nan
14343;BME280;7255;53.596;9.960;2023-02-22T02:40:18;101311.69;;;9.25;nan
14343;BME280;7255;53.596;9.960;2023-02-22T02:42:52;101312.47;;;9.19;nan
14343;BME280;7255;53.596;9.960;2023-02-22T02:45:22;101303.41;;;9.20;nan
14343;BME280;7255;53.596;9.960;2023-02-22T02:47:54;101310.41;;;9.21;nan
14343;BME280;7255;53.596;9.960;2023-02-22T02:50:26;101303.84;;;9.23;nan
14343;BME280;7255;53.596;9.960;2023-02-22T02:52:56;101309.19;;;9.23;nan
14343;BME280;7255;53.596;9.960;2023-02-22T02:55:23;101294.72;;;9.11;nan
14343;BME280;7255;53.596;9.960;2023-02-22T02:57:49;101306.28;;;9.18;nan
14343;BME280;7255;53.596;9.960;2023-02-22T03:00:19;101303.81;;;9.17;nan
14343;BME280;7255;53.596;9.960;2023-02-22T03:02:57;101283.16;;;9.11;nan
14343;BME280;7255;53.596;9.960;2023-02-22T03:05:42;101285.19;;;9.02;nan
14343;BME280;7255;53.596;9.960;2023-02-22T03:08:16;101275.72;;;9.06;nan
14343;BME280;7255;53.596;9.960;2023-02-22T03:10:52;101278.63;;;9.11;nan
14343;BME280;7255;53.596;9.960;2023-02-22T03:13:28;101275.72;;;9.06;nan
14343;BME280;7255;53.596;9.960;2023-02-22T03:16:02;101278.19;;;9.08;nan
14343;BME280;7255;53.596;9.960;2023-02-22T03:18:37;101269.56;;;9.12;nan
14343;BME280;7255;53.596;9.960;2023-02-22T03:21:16;101281.09;;;9.19;nan
14343;BME280;7255;53.596;9.960;2023-02-22T03:23:50;101272.03;;;9.07;nan
14343;BME280;7255;53.596;9.960;2023-02-22T03:26:24;101267.44;;;9.01;nan
14343;BME280;7255;53.596;9.960;2023-02-22T03:28:54;101263.31;;;8.98;nan
14343;BME280;7255;53.596;9.960;2023-02-22T03:31:24;101255.47;;;8.97;nan
14343;BME280;7255;53.596;9.960;2023-02-22T03:33:57;101261.22;;;8.87;nan
14343;BME280;7255;53.596;9.960;2023-02-22T03:36:28;101263.72;;;8.95;nan
14343;BME280;7255;53.596;9.960;2023-02-22T03:38:57;101257.53;;;8.95;nan
14343;BME280;7255;53.596;9.960;2023-02-22T03:41:25;101266.19;;;8.97;nan
14343;BME280;7255;53.596;9.960;2023-02-22T03:43:56;101260.44;;;9.00;nan
14343;BME280;7255;53.596;9.960;2023-02-22T03:46:25;101260.81;;;8.90;nan
14343;BME280;7255;53.596;9.960;2023-02-22T03:48:58;101262.88;;;8.88;nan
14343;BME280;7255;53.596;9.960;2023-02-22T03:51:26;101259.16;;;8.89;nan
14343;BME280;7255;53.596;9.960;2023-02-22T03:53:53;101266.53;;;8.80;nan
14343;BME280;7255;53.596;9.960;2023-02-22T03:56:21;101262.44;;;8.84;nan
14343;BME280;7255;53.596;9.960;2023-02-22T03:58:50;101250.13;;;8.97;nan
14343;BME280;7255;53.596;9.960;2023-02-22T04:01:17;101253.41;;;8.99;nan
14343;BME280;7255;53.596;9.960;2023-02-22T04:03:47;101257.16;;;9.04;nan
14343;BME280;7255;53.596;9.960;2023-02-22T04:06:15;101262.09;;;9.01;nan
14343;BME280;7255;53.596;9.960;2023-02-22T04:08:41;101247.63;;;8.95;nan
14343;BME280;7255;53.596;9.960;2023-02-22T04:11:08;101251.78;;;9.04;nan
14343;BME280;7255;53.596;9.960;2023-02-22T04:13:34;101258.38;;;9.02;nan
14343;BME280;7255;53.596;9.960;2023-02-22T04:16:00;101245.59;;;9.04;nan
14343;BME280;7255;53.596;9.960;2023-02-22T04:18:27;101247.28;;;9.05;nan
14343;BME280;7255;53.596;9.960;2023-02-22T04:20:53;101254.66;;;8.96;nan
14343;BME280;7255;53.596;9.960;2023-02-22T04:23:21;101249.72;;;9.00;nan
14343;BME280;7255;53.596;9.960;2023-02-22T04:25:47;101254.69;;;9.03;nan
14343;BME280;7255;53.596;9.960;2023-02-22T04:28:13;101256.34;;;9.11;nan
14343;BME280;7255;53.596;9.960;2023-02-22T04:30:40;101257.16;;;8.98;nan
14343;BME280;7255;53.596;9.960;2023-02-22T04:33:08;101254.69;;;9.03;nan
14343;BME280;7255;53.596;9.960;2023-02-22T04:35:34;101255.50;;;9.10;nan
14343;BME280;7255;53.596;9.960;2023-02-22T04:38:01;101257.56;;;9.08;nan
14343;BME280;7255;53.596;9.960;2023-02-22T04:40:29;101271.19;;;9.13;nan
14343;BME280;7255;53.596;9.960;2023-02-22T04:42:56;101268.72;;;9.12;nan
14343;BME280;7255;53.596;9.960;2023-02-22T04:45:24;101276.59;;;9.20;nan
14343;BME280;7255;53.596;9.960;2023-02-22T04:47:50;101309.97;;;9.17;nan
14343;BME280;7255;53.596;9.960;2023-02-22T04:50:17;101272.81;;;9.01;nan
14343;BME280;7255;53.596;9.960;2023-02-22T04:52:43;101265.41;;;9.03;nan
14343;BME280;7255;53.596;9.960;2023-02-22T04:55:11;101259.63;;;9.06;nan
14343;BME280;7255;53.596;9.960;2023-02-22T04:57:39;101239.44;;;9.10;nan
14343;BME280;7255;53.596;9.960;2023-02-22T05:00:06;101295.94;;;9.15;nan
14343;BME280;7255;53.596;9.960;2023-02-22T05:02:34;101264.19;;;9.05;nan
14343;BME280;7255;53.596;9.960;2023-02-22T05:05:00;101303.81;;;9.17;nan
14343;BME280;7255;53.596;9.960;2023-02-22T05:07:27;101248.91;;;9.06;nan
14343;BME280;7255;53.596;9.960;2023-02-22T05:09:53;101262.53;;;9.11;nan
14343;BME280;7255;53.596;9.960;2023-02-22T05:12:19;101256.78;;;9.14;nan
14343;BME280;7255;53.596;9.960;2023-02-22T05:14:48;101265.88;;;9.20;nan
14343;BME280;7255;53.596;9.960;2023-02-22T05:17:14;101260.87;;;9.10;nan
14343;BME280;7255;53.596;9.960;2023-02-22T05:19:40;101260.91;;;9.17;nan
14343;BME280;7255;53.596;9.960;2023-02-22T05:22:07;101258.41;;;9.15;nan
14343;BME280;7255;53.596;9.960;2023-02-22T05:24:33;101256.34;;;9.17;nan
14343;BME280;7255;53.596;9.960;2023-02-22T05:26:59;101253.41;;;8.99;nan
14343;BME280;7255;53.596;9.960;2023-02-22T05:29:26;101255.13;;;9.13;nan
14343;BME280;7255;53.596;9.960;2023-02-22T05:31:53;101263.38;;;9.18;nan
14343;BME280;7255;53.596;9.960;2023-02-22T05:34:20;101260.44;;;9.06;nan
14343;BME280;7255;53.596;9.960;2023-02-22T05:36:46;101257.59;;;9.15;nan
14343;BME280;7255;53.596;9.960;2023-02-22T05:39:12;101257.22;;;9.18;nan
14343;BME280;7255;53.596;9.960;2023-02-22T05:41:39;101260.94;;;9.23;nan
14343;BME280;7255;53.596;9.960;2023-02-22T05:44:05;101265.88;;;9.27;nan
14343;BME280;7255;53.596;9.960;2023-02-22T05:46:31;101256.38;;;9.24;nan
14343;BME280;7255;53.596;9.960;2023-02-22T05:48:59;101266.72;;;9.27;nan
14343;BME280;7255;53.596;9.960;2023-02-22T05:51:26;101260.09;;;9.30;nan
14343;BME280;7255;53.596;9.960;2023-02-22T05:53:52;101309.59;;;9.20;nan
14343;BME280;7255;53.596;9.960;2023-02-22T05:56:23;101251.41;;;9.21;nan
14343;BME280;7255;53.596;9.960;2023-02-22T05:58:50;101249.78;;;9.27;nan
14343;BME280;7255;53.596;9.960;2023-02-22T06:01:17;101239.44;;;9.10;nan
14343;BME280;7255;53.596;9.960;2023-02-22T06:03:45;101255.16;;;9.20;nan
14343;BME280;7255;53.596;9.960;2023-02-22T06:06:13;101237.41;;;9.12;nan
14343;BME280;7255;53.596;9.960;2023-02-22T06:08:40;101247.31;;;9.18;nan
14343;BME280;7255;53.596;9.960;2023-02-22T06:11:06;101240.69;;;9.14;nan
14343;BME280;7255;53.596;9.960;2023-02-22T06:13:33;101240.28;;;9.11;nan
14343;BME280;7255;53.596;9.960;2023-02-22T06:16:00;101239.84;;;9.14;nan
14343;BME280;7255;53.596;9.960;2023-02-22T06:18:26;101246.06;;;9.14;nan
14343;BME280;7255;53.596;9.960;2023-02-22T06:20:55;101243.19;;;9.16;nan
14343;BME280;7255;53.596;9.960;2023-02-22T06:23:23;101246.06;;;9.14;nan
14343;BME280;7255;53.596;9.960;2023-02-22T06:25:49;101252.62;;;9.12;nan
14343;BME280;7255;53.596;9.960;2023-02-22T06:28:16;101247.69;;;9.15;nan
14343;BME280;7255;53.596;9.960;2023-02-22T06:30:42;101257.59;;;9.15;nan
14343;BME280;7255;53.596;9.960;2023-02-22T06:33:09;101255.13;;;9.13;nan
14343;BME280;7255;53.596;9.960;2023-02-22T06:35:36;101254.69;;;9.10;nan
14343;BME280;7255;53.596;9.960;2023-02-22T06:38:03;101251.00;;;9.17;nan
14343;BME280;7255;53.596;9.960;2023-02-22T06:40:31;101249.75;;;9.13;nan
14343;BME280;7255;53.596;9.960;2023-02-22T06:42:57;101248.50;;;9.02;nan
14343;BME280;7255;53.596;9.960;2023-02-22T06:45:24;101250.56;;;9.14;nan
14343;BME280;7255;53.596;9.960;2023-02-22T06:47:50;101250.56;;;9.14;nan
14343;BME280;7255;53.596;9.960;2023-02-22T06:50:20;101246.87;;;9.15;nan
14343;BME280;7255;53.596;9.960;2023-02-22T06:52:47;101250.59;;;9.20;nan
14343;BME280;7255;53.596;9.960;2023-02-22T06:55:18;101252.66;;;9.18;nan
14343;BME280;7255;53.596;9.960;2023-02-22T06:57:46;101252.28;;;9.21;nan
14343;BME280;7255;53.596;9.960;2023-02-22T07:00:14;101304.63;;;9.17;nan
14343;BME280;7255;53.596;9.960;2023-02-22T07:02:41;101266.69;;;9.20;nan
14343;BME280;7255;53.596;9.960;2023-02-22T07:05:09;101252.22;;;9.08;nan
14343;BME280;7255;53.596;9.960;2023-02-22T07:07:35;101258.41;;;9.15;nan
14343;BME280;7255;53.596;9.960;2023-02-22T07:10:03;101254.69;;;9.10;nan
14343;BME280;7255;53.596;9.960;2023-02-22T07:12:29;101264.22;;;9.19;nan
14343;BME280;7255;53.596;9.960;2023-02-22T07:14:57;101257.63;;;9.21;nan
14343;BME280;7255;53.596;9.960;2023-02-22T07:17:23;101253.50;;;9.25;nan
14343;BME280;7255;53.596;9.960;2023-02-22T07:19:49;101262.16;;;9.21;nan
14343;BME280;7255;53.596;9.960;2023-02-22T07:22:16;101253.09;;;9.22;nan
14343;BME280;7255;53.596;9.960;2023-02-22T07:24:42;101259.69;;;9.26;nan
14343;BME280;7255;53.596;9.960;2023-02-22T07:27:09;101251.84;;;9.24;nan
14343;BME280;7255;53.596;9.960;2023-02-22T07:29:35;101252.69;;;9.32;nan
14343;BME280;7255;53.596;9.960;2023-02-22T07:32:03;101255.97;;;9.34;nan
14343;BME280;7255;53.596;9.960;2023-02-22T07:34:29;101262.59;;;9.31;nan
14343;BME280;7255;53.596;9.960;2023-02-22T07:36:55;101256.78;;;9.21;nan
14343;BME280;7255;53.596;9.960;2023-02-22T07:39:22;101262.56;;;9.24;nan
14343;BME280;7255;53.596;9.960;2023-02-22T07:41:48;101255.16;;;9.27;nan
14343;BME280;7255;53.596;9.960;2023-02-22T07:44:14;101256.41;;;9.37;nan
14343;BME280;7255;53.596;9.960;2023-02-22T07:46:45;101256.00;;;9.40;nan
14343;BME280;7255;53.596;9.960;2023-02-22T07:49:13;101259.28;;;9.36;nan
14343;BME280;7255;53.596;9.960;2023-02-22T07:51:40;101253.97;;;9.49;nan
14343;BME280;7255;53.596;9.960;2023-02-22T07:54:06;101249.84;;;9.53;nan
14343;BME280;7255;53.596;9.960;2023-02-22T07:56:33;101241.56;;;9.61;nan
14343;BME280;7255;53.596;9.960;2023-02-22T07:58:59;101257.25;;;9.64;nan
14343;BME280;7255;53.596;9.960;2023-02-22T08:01:25;101249.84;;;9.67;nan
14343;BME280;7255;53.596;9.960;2023-02-22T08:03:52;101246.97;;;9.75;nan
14343;BME280;7255;53.596;9.960;2023-02-22T08:06:21;101230.44;;;9.71;nan
14343;BME280;7255;53.596;9.960;2023-02-22T08:08:50;101235.78;;;9.78;nan
14343;BME280;7255;53.596;9.960;2023-02-22T08:11:16;101234.97;;;9.84;nan
14343;BME280;7255;53.596;9.960;2023-02-22T08:13:42;101249.88;;;9.80;nan
14343;BME280;7255;53.596;9.960;2023-02-22T08:16:09;101241.16;;;9.78;nan
14343;BME280;7255;53.596;9.960;2023-02-22T08:18:35;101230.44;;;9.78;nan
14343;BME280;7255;53.596;9.960;2023-02-22T08:21:02;101235.41;;;9.88;nan
14343;BME280;7255;53.596;9.960;2023-02-22T08:23:30;101232.91;;;9.86;nan
14343;BME280;7255;53.596;9.960;2023-02-22T08:26:03;101226.72;;;9.86;nan
14343;BME280;7255;53.596;9.960;2023-02-22T08:28:30;101234.97;;;10.04;nan
14343;BME280;7255;53.596;9.960;2023-02-22T08:30:56;101231.66;;;10.09;nan
14343;BME280;7255;53.596;9.960;2023-02-22T08:33:22;101228.34;;;10.07;nan
14343;BME280;7255;53.596;9.960;2023-02-22T08:35:49;101237.84;;;10.16;nan
14343;BME280;7255;53.596;9.960;2023-02-22T08:38:17;101239.06;;;10.20;nan
14343;BME280;7255;53.596;9.960;2023-02-22T08:40:46;101230.00;;;10.08;nan
14343;BME280;7255;53.596;9.960;2023-02-22T08:43:13;101228.75;;;10.03;nan
14343;BME280;7255;53.596;9.960;2023-02-22T08:45:39;101234.53;;;10.14;nan
14343;BME280;7255;53.596;9.960;2023-02-22T08:48:06;101230.78;;;10.21;nan
14343;BME280;7255;53.596;9.960;2023-02-22T08:50:33;101233.72;;;10.07;nan
14343;BME280;7255;53.596;9.960;2023-02-22T08:53:02;101235.75;;;10.18;nan
14343;BME280;7255;53.596;9.960;2023-02-22T08:55:30;101232.50;;;10.02;nan
14343;BME280;7255;53.596;9.960;2023-02-22T08:57:58;101226.69;;;10.19;nan
14343;BME280;7255;53.596;9.960;2023-02-22T09:00:27;101227.50;;;10.19;nan
14343;BME280;7255;53.596;9.960;2023-02-22T09:02:57;101221.72;;;10.16;nan
14343;BME280;7255;53.596;9.960;2023-02-22T09:05:23;101241.53;;;10.21;nan
14343;BME280;7255;53.596;9.960;2023-02-22T09:07:50;101232.03;;;10.32;nan
14343;BME280;7255;53.596;9.960;2023-02-22T09:10:19;101228.28;;;10.47;nan
14343;BME280;7255;53.596;9.960;2023-02-22T09:12:48;101219.22;;;10.41;nan
14343;BME280;7255;53.596;9.960;2023-02-22T09:15:16;101232.38;;;10.56;nan
14343;BME280;7255;53.596;9.960;2023-02-22T09:17:42;101235.28;;;10.61;nan
14343;BME280;7255;53.596;9.960;2023-02-22T09:20:10;101229.84;;;10.68;nan
14343;BME280;7255;53.596;9.960;2023-02-22T09:22:37;101233.19;;;10.63;nan
14343;BME280;7255;53.596;9.960;2023-02-22T09:25:04;101241.06;;;10.58;nan
14343;BME280;7255;53.596;9.960;2023-02-22T09:27:31;101230.37;;;10.45;nan
14343;BME280;7255;53.596;9.960;2023-02-22T09:29:57;101232.84;;;10.39;nan
14343;BME280;7255;53.596;9.960;2023-02-22T09:32:25;101227.06;;;10.36;nan
14343;BME280;7255;53.596;9.960;2023-02-22T09:34:53;101217.59;;;10.13;nan
14343;BME280;7255;53.596;9.960;2023-02-22T09:37:19;101225.03;;;10.05;nan
14343;BME280;7255;53.596;9.960;2023-02-22T09:39:46;101227.50;;;10.13;nan
14343;BME280;7255;53.596;9.960;2023-02-22T09:42:16;101218.00;;;10.03;nan
14343;BME280;7255;53.596;9.960;2023-02-22T09:44:51;101218.84;;;10.11;nan
14343;BME280;7255;53.596;9.960;2023-02-22T09:47:23;101215.53;;;10.15;nan
14343;BME280;7255;53.596;9.960;2023-02-22T09:50:01;101212.19;;;10.20;nan
14343;BME280;7255;53.596;9.960;2023-02-22T09:52:30;101219.63;;;10.25;nan
14343;BME280;7255;53.596;9.960;2023-02-22T09:55:06;101214.28;;;10.25;nan
14343;BME280;7255;53.596;9.960;2023-02-22T09:57:35;101217.16;;;10.23;nan
14343;BME280;7255;53.596;9.960;2023-02-22T10:00:07;101213.84;;;10.28;nan
14343;BME280;7255;53.596;9.960;2023-02-22T10:02:45;101219.63;;;10.38;nan
14343;BME280;7255;53.596;9.960;2023-02-22T10:05:20;101206.41;;;10.36;nan
14343;BME280;7255;53.596;9.960;2023-02-22T10:07:53;101214.25;;;10.45;nan
14343;BME280;7255;53.596;9.960;2023-02-22T10:10:22;101221.62;;;10.63;nan
14343;BME280;7255;53.596;9.960;2023-02-22T10:12:58;101215.47;;;10.49;nan
14343;BME280;7255;53.596;9.960;2023-02-22T10:15:35;101215.41;;;10.62;nan
14343;BME280;7255;53.596;9.960;2023-02-22T10:18:24;101208.31;;;10.81;nan
14343;BME280;7255;53.596;9.960;2023-02-22T10:20:56;101218.59;;;10.91;nan
14343;BME280;7255;53.596;9.960;2023-02-22T10:23:28;101214.09;;;10.85;nan
14343;BME280;7255;53.596;9.960;2023-02-22T10:26:11;101209.06;;;10.95;nan
14343;BME280;7255;53.596;9.960;2023-02-22T10:28:41;101216.81;;;11.10;nan
14343;BME280;7255;53.596;9.960;2023-02-22T10:31:19;101211.00;;;11.20;nan
14343;BME280;7255;53.596;9.960;2023-02-22T10:33:51;101213.75;;;11.38;nan
14343;BME280;7255;53.596;9.960;2023-02-22T10:36:21;101205.41;;;11.46;nan
14343;BME280;7255;53.596;9.960;2023-02-22T10:38:52;101205.78;;;11.50;nan
14343;BME280;7255;53.596;9.960;2023-02-22T10:41:25;101209.44;;;11.62;nan
14343;BME280;7255;53.596;9.960;2023-02-22T10:43:52;101210.69;;;11.60;nan
14343;BME280;7255;53.596;9.960;2023-02-22T10:46:21;101202.34;;;11.68;nan
14343;BME280;7255;53.596;9.960;2023-02-22T10:48:49;101193.91;;;11.83;nan
14343;BME280;7255;53.596;9.960;2023-02-22T10:51:16;101201.28;;;11.94;nan
14343;BME280;7255;53.596;9.960;2023-02-22T10:53:52;101189.31;;;11.90;nan
14343;BME280;7255;53.596;9.960;2023-02-22T10:56:21;101186.28;;;12.05;nan
14343;BME280;7255;53.596;9.960;2023-02-22T10:58:51;101174.62;;;12.11;nan
14343;BME280;7255;53.596;9.960;2023-02-22T11:01:21;101168.41;;;12.10;nan
14343;BME280;7255;53.596;9.960;2023-02-22T11:03:58;101160.69;;;11.96;nan
14343;BME280;7255;53.596;9.960;2023-02-22T11:06:25;101161.53;;;11.96;nan
14343;BME280;7255;53.596;9.960;2023-02-22T11:09:03;101160.19;;;12.05;nan
14343;BME280;7255;53.596;9.960;2023-02-22T11:11:29;101161.97;;;11.93;nan
14343;BME280;7255;53.596;9.960;2023-02-22T11:13:56;101158.69;;;11.84;nan
14343;BME280;7255;53.596;9.960;2023-02-22T11:16:26;101153.69;;;11.88;nan
14343;BME280;7255;53.596;9.960;2023-02-22T11:18:59;101157.41;;;11.93;nan
14343;BME280;7255;53.596;9.960;2023-02-22T11:21:28;101148.19;;;12.01;nan
14343;BME280;7255;53.596;9.960;2023-02-22T11:24:02;101139.47;;;12.06;nan
14343;BME280;7255;53.596;9.960;2023-02-22T11:26:38;101130.31;;;12.07;nan
14343;BME280;7255;53.596;9.960;2023-02-22T11:29:17;101138.75;;;12.29;nan
14343;BME280;7255;53.596;9.960;2023-02-22T11:31:45;101127.47;;;12.39;nan
14343;BME280;7255;53.596;9.960;2023-02-22T11:34:28;101133.97;;;12.49;nan
14343;BME280;7255;53.596;9.960;2023-02-22T11:40:17;101083.22;;;12.58;nan
14343;BME280;7255;53.596;9.960;2023-02-22T11:42:46;101121.78;;;12.89;nan
14343;BME280;7255;53.596;9.960;2023-02-22T11:45:14;101123.12;;;13.10;nan
14343;BME280;7255;53.596;9.960;2023-02-22T11:47:50;101125.13;;;13.15;nan
14343;BME280;7255;53.596;9.960;2023-02-22T11:50:29;101116.69;;;13.23;nan
14343;BME280;7255;53.596;9.960;2023-02-22T11:53:20;101113.78;;;13.24;nan
14343;BME280;7255;53.596;9.960;2023-02-22T11:56:03;101118.16;;;13.37;nan
14343;BME280;7255;53.596;9.960;2023-02-22T11:58:42;101121.91;;;13.60;nan
14343;BME280;7255;53.596;9.960;2023-02-22T12:01:17;101131.91;;;13.59;nan
14343;BME280;7255;53.596;9.960;2023-02-22T12:04:19;101118.63;;;13.58;nan
14343;BME280;7255;53.596;9.960;2023-02-22T12:07:04;101115.09;;;13.69;nan
14343;BME280;7255;53.596;9.960;2023-02-22T12:09:41;101111.56;;;13.57;nan
14343;BME280;7255;53.596;9.960;2023-02-22T12:12:17;101111.81;;;13.67;nan
14343;BME280;7255;53.596;9.960;2023-02-22T12:14:51;101101.09;;;13.84;nan
14343;BME280;7255;53.596;9.960;2023-02-22T12:17:37;101101.34;;;13.94;nan
14343;BME280;7255;53.596;9.960;2023-02-22T12:20:15;101116.94;;;14.04;nan
14343;BME280;7255;53.596;9.960;2023-02-22T12:22:52;101104.97;;;14.00;nan
14343;BME280;7255;53.596;9.960;2023-02-22T12:25:22;101101.41;;;14.11;nan
14343;BME280;7255;53.596;9.960;2023-02-22T12:27:53;101089.16;;;14.20;nan
14343;BME280;7255;53.596;9.960;2023-02-22T12:30:23;101093.75;;;14.20;nan
14343;BME280;7255;53.596;9.960;2023-02-22T12:32:54;101084.97;;;14.01;nan
14343;BME280;7255;53.596;9.960;2023-02-22T12:35:24;101077.94;;;14.00;nan
14343;BME280;7255;53.596;9.960;2023-02-22T12:37:58;101098.47;;;14.13;nan
14343;BME280;7255;53.596;9.960;2023-02-22T12:40:32;101092.44;;;14.22;nan
14343;BME280;7255;53.596;9.960;2023-02-22T12:43:07;101096.00;;;14.11;nan
14343;BME280;7255;53.596;9.960;2023-02-22T12:45:40;101084.03;;;14.07;nan
14343;BME280;7255;53.596;9.960;2023-02-22T12:48:20;101091.22;;;14.01;nan
14343;BME280;7255;53.596;9.960;2023-02-22T12:50:53;101092.38;;;14.05;nan
14343;BME280;7255;53.596;9.960;2023-02-22T12:53:25;101089.78;;;14.11;nan
14343;BME280;7255;53.596;9.960;2023-02-22T12:55:57;101076.69;;;14.19;nan
14343;BME280;7255;53.596;9.960;2023-02-22T12:58:31;101072.31;;;13.90;nan
14343;BME280;7255;53.596;9.960;2023-02-22T13:01:02;101076.03;;;14.12;nan
14343;BME280;7255;53.596;9.960;2023-02-22T13:03:34;101080.94;;;14.15;nan
14343;BME280;7255;53.596;9.960;2023-02-22T13:06:13;101079.78;;;14.11;nan
14343;BME280;7255;53.596;9.960;2023-02-22T13:08:51;101079.66;;;14.18;nan
14343;BME280;7255;53.596;9.960;2023-02-22T13:11:27;101079.56;;;14.01;nan
14343;BME280;7255;53.596;9.960;2023-02-22T13:14:09;101067.84;;;14.07;nan
14343;BME280;7255;53.596;9.960;2023-02-22T13:16:43;101076.69;;;14.19;nan
14343;BME280;7255;53.596;9.960;2023-02-22T13:19:25;101072.88;;;14.03;nan
14343;BME280;7255;53.596;9.960;2023-02-22T13:21:58;101065.06;;;13.78;nan
14343;BME280;7255;53.596;9.960;2023-02-22T13:24:31;101056.41;;;13.53;nan
14343;BME280;7255;53.596;9.960;2023-02-22T13:27:05;101063.81;;;13.57;nan
14343;BME280;7255;53.596;9.960;2023-02-22T13:29:38;101047.63;;;13.57;nan
14343;BME280;7255;53.596;9.960;2023-02-22T13:32:22;101054.09;;;13.44;nan
14343;BME280;7255;53.596;9.960;2023-02-22T13:35:02;101051.00;;;13.29;nan
14343;BME280;7255;53.596;9.960;2023-02-22T13:37:43;101055.00;;;13.38;nan
14343;BME280;7255;53.596;9.960;2023-02-22T13:40:33;101048.31;;;13.17;nan
14343;BME280;7255;53.596;9.960;2023-02-22T13:43:24;101040.13;;;13.36;nan
14343;BME280;7255;53.596;9.960;2023-02-22T13:46:12;101046.41;;;13.29;nan
14343;BME280;7255;53.596;9.960;2023-02-22T13:48:58;101048.69;;;13.44;nan
14343;BME280;7255;53.596;9.960;2023-02-22T13:51:40;101047.03;;;13.43;nan